Currently 54°F in San Jacinto, California, USA
54°F
69°F / 34°F
calm
0.00"
Friday, January 27, 2023 7:19 PM PST

San Jacinto, California Weather Summary
Last 36 Hours

Temperature Winds Hourly Humidity Dewpoint
Time Report Norm Report Norm Max Gusts Precip. Rpt. Norm Rpt. Norm Pressure
1Fri 07:19 PM  53.8°F  55°F  calm  1 mph  none  0.00"  49%  52%  34°F  37°F  30.03"
Fri 07:00 PM  55.0°F  56°F  calm  1 mph  7 mph  0.00"  47%  51%  34°F  37°F  30.03"
Fri 06:00 PM  58.8°F  58°F  1 mph E  2 mph  6 mph  0.00"  40%  47%  34°F  37°F  30.02"
Fri 05:00 PM  65.1°F  62°F  calm  2 mph  1 mph  0.00"  30%  40%  32°F  36°F  30.01"
Fri 04:00 PM  68.5°F  64°F  calm  3 mph  1 mph  0.00"  24%  35%  29°F  35°F  30.01"
2Fri 03:15 PM  68.7°F  65°F  calm  3 mph  none  ----  26%  35%  31°F  35°F  30.03"
Fri 03:00 PM  68.0°F  65°F  calm  3 mph  1 mph  0.00"  25%  35%  29°F  35°F  30.03"
Fri 02:00 PM  66.9°F  64°F  calm  3 mph  6 mph  0.00"  24%  36%  27°F  36°F  30.05"
Fri 01:00 PM  66.0°F  63°F  calm  2 mph  none  0.00"  25%  37%  28°F  36°F  30.08"
Fri 12:00 PM  62.2°F  61°F  calm  2 mph  none  0.00"  30%  40%  29°F  36°F  30.13"
Fri 11:00 AM  59.0°F  59°F  calm  2 mph  none  0.00"  32%  44%  28°F  36°F  30.19"
Fri 10:00 AM  53.8°F  55°F  calm  1 mph  none  0.00"  37%  52%  27°F  37°F  30.23"
Fri 09:00 AM  47.8°F  50°F  calm  1 mph  none  0.00"  47%  61%  28°F  36°F  30.25"
Fri 08:00 AM  38.5°F  45°F  calm  1 mph  none  0.00"  64%  70%  27°F  35°F  30.26"
Fri 07:00 AM  34.7°F  42°F  calm  1 mph  none  0.00"  67%  73%  24°F  34°F  30.27"
3Fri 06:37 AM  34.3°F  42°F  calm  1 mph  none  ----  67%  73%  24°F  33°F  30.27"
Fri 06:00 AM  35.1°F  42°F  calm  1 mph  none  0.00"  65%  73%  24°F  34°F  30.26"
Fri 05:00 AM  36.0°F  43°F  calm  1 mph  none  0.00"  64%  72%  24°F  34°F  30.26"
Fri 04:00 AM  36.9°F  43°F  calm  1 mph  none  0.00"  62%  71%  25°F  34°F  30.27"
Fri 03:00 AM  38.8°F  44°F  calm  1 mph  none  0.00"  57%  70%  24°F  34°F  30.29"
Fri 02:00 AM  40.6°F  45°F  calm  1 mph  none  0.00"  53%  69%  24°F  35°F  30.30"
Fri 01:00 AM  39.4°F  46°F  calm  1 mph  none  0.00"  58%  67%  25°F  35°F  30.31"
Fri 12:01 AM  41.4°F  47°F  calm  1 mph  none  0.00"  53%  66%  25°F  35°F  30.32"
Thu 11:00 PM  44.2°F  48°F  calm  1 mph  none  0.00"  45%  63%  23°F  36°F  30.33"
Thu 10:00 PM  46.0°F  50°F  calm  1 mph  2 mph  0.00"  43%  61%  24°F  36°F  30.32"
Thu 09:00 PM  46.9°F  51°F  calm  1 mph  none  0.00"  43%  59%  25°F  37°F  30.31"
Thu 08:00 PM  50.7°F  53°F  calm  1 mph  9 mph  0.00"  35%  55%  23°F  37°F  30.30"
Thu 07:00 PM  56.5°F  55°F  calm  1 mph  none  0.00"  27%  51%  21°F  37°F  30.31"
Thu 06:00 PM  59.2°F  58°F  calm  2 mph  3 mph  0.00"  23%  47%  20°F  37°F  30.31"
Thu 05:00 PM  61.9°F  61°F  calm  2 mph  10 mph  0.00"  21%  41%  20°F  36°F  30.27"
Thu 04:00 PM  64.6°F  64°F  calm  3 mph  28 mph  0.00"  18%  35%  18°F  35°F  30.24"
Thu 03:00 PM  62.8°F  65°F  18 mph NE  3 mph  34 mph  0.00"  15%  35%  12°F  35°F  30.25"
Thu 02:00 PM  62.2°F  64°F  17 mph NE  3 mph  31 mph  0.00"  18%  36%  16°F  35°F  30.26"
Thu 01:00 PM  60.6°F  63°F  10 mph NE  2 mph  34 mph  0.00"  22%  37%  20°F  36°F  30.29"
Thu 12:00 PM  60.1°F  61°F  9 mph E  2 mph  38 mph  0.00"  23%  40%  21°F  36°F  30.32"
Thu 11:00 AM  60.1°F  59°F  11 mph E  2 mph  39 mph  0.00"  22%  45%  19°F  37°F  30.34"
Thu 10:00 AM  59.5°F  55°F  8 mph NE  1 mph  36 mph  0.00"  24%  53%  21°F  37°F  30.36"
Thu 09:00 AM  57.7°F  50°F  16 mph NE  1 mph  41 mph  0.00"  25%  62%  21°F  37°F  30.34"
Thu 08:00 AM  57.6°F  44°F  15 mph NE  1 mph  49 mph  0.00"  23%  71%  18°F  35°F  30.33"

  1. Current weather data. No green row appears if the current weather data is also the high or low for the current day.
  2. High temperature for the current day.
  3. Low temperature for the current day.

The San Jacinto, California weather pages are a service of WeatherCurrents. San Jacinto is located in the heart of the San Jacinto Valley, near Hemet, the Soboba Casino, and at the foot of the San Jacinto Mountains.
Copyright ©2023  WeatherCurrents. All rights reserved. - Submit questions and comments - Privacy Policy

This page automatically refreshes every 10 minutes.